LRI582 LFRB-LFBT
Flight info
| Callsign | LRI582 |
|---|---|
| Flight time | 0h 58m |
| Altitude | 35000 |
| Route | QPR6F QPR DCT LEGMO DCT GALOF DCT LMB DCT AGN AGN7R |
| Aircraft | B77L/H-SDE1E2E3FGHIJ2J3J4J5M1RWXY/LB1D1 |
Departure
| Time | 2026-05-04 19:05 |
|---|---|
| Airport | Brest Bretagne airport (LFRB) |
Arrival
| Time | 2026-05-04 20:03 |
|---|---|
| Airport | Tarbes-Lourdes-Pyrénées Airport (LFBT) |
| Time | Latitude | Longitude | Altitude | Speed | Heading |
|---|---|---|---|---|---|
| 2026-05-04 18:38 | 48.44641 | -4.41572 | 327 ft | 0 kts | 161° |
| 2026-05-04 18:56 | 48.44646 | -4.41575 | 327 ft | 2 kts | 165° |
| 2026-05-04 18:56 | 48.44661 | -4.41577 | 327 ft | 2 kts | 188° |
| 2026-05-04 18:56 | 48.44675 | -4.41571 | 327 ft | 2 kts | 206° |
| 2026-05-04 18:57 | 48.44688 | -4.41559 | 327 ft | 2 kts | 224° |
| 2026-05-04 18:57 | 48.44698 | -4.41542 | 327 ft | 2 kts | 242° |
| 2026-05-04 18:57 | 48.44701 | -4.41531 | 327 ft | 1 kts | 251° |
| 2026-05-04 18:57 | 48.44702 | -4.41527 | 327 ft | 0 kts | 251° |
| 2026-05-04 18:59 | 48.44695 | -4.41548 | 327 ft | 6 kts | 240° |
| 2026-05-04 18:59 | 48.44662 | -4.41644 | 327 ft | 13 kts | 248° |
| 2026-05-04 18:59 | 48.44626 | -4.41798 | 327 ft | 15 kts | 252° |
| 2026-05-04 19:00 | 48.44591 | -4.41960 | 324 ft | 16 kts | 252° |
| 2026-05-04 19:00 | 48.44579 | -4.42049 | 324 ft | 0 kts | 290° |
| 2026-05-04 19:00 | 48.44579 | -4.42050 | 324 ft | 0 kts | 290° |
| 2026-05-04 19:02 | 48.44604 | -4.42104 | 324 ft | 13 kts | 323° |
| 2026-05-04 19:02 | 48.44687 | -4.42194 | 324 ft | 16 kts | 289° |
| 2026-05-04 19:02 | 48.44659 | -4.42418 | 316 ft | 28 kts | 252° |
| 2026-05-04 19:02 | 48.44589 | -4.42727 | 302 ft | 33 kts | 252° |
| 2026-05-04 19:03 | 48.44514 | -4.43057 | 297 ft | 32 kts | 252° |
| 2026-05-04 19:03 | 48.44444 | -4.43371 | 294 ft | 30 kts | 251° |
| 2026-05-04 19:03 | 48.44382 | -4.43649 | 292 ft | 17 kts | 253° |
| 2026-05-04 19:03 | 48.44380 | -4.43784 | 291 ft | 8 kts | 256° |
| 2026-05-04 19:04 | 48.44361 | -4.43760 | 291 ft | 6 kts | 84° |
| 2026-05-04 19:04 | 48.44398 | -4.43574 | 292 ft | 38 kts | 72° |
| 2026-05-04 19:04 | 48.44569 | -4.42813 | 299 ft | 114 kts | 72° |
| 2026-05-04 19:04 | 48.44902 | -4.41358 | 337 ft | 178 kts | 70° |
| 2026-05-04 19:05 | 48.45325 | -4.39377 | 647 ft | 210 kts | 73° |
| 2026-05-04 19:05 | 48.45641 | -4.37265 | 1760 ft | 211 kts | 85° |
| 2026-05-04 19:05 | 48.45448 | -4.35223 | 2921 ft | 200 kts | 109° |
| 2026-05-04 19:05 | 48.44685 | -4.33394 | 3418 ft | 216 kts | 135° |
| 2026-05-04 19:06 | 48.43512 | -4.31874 | 3848 ft | 236 kts | 139° |
| 2026-05-04 19:06 | 48.42215 | -4.30232 | 4470 ft | 247 kts | 138° |
| 2026-05-04 19:06 | 48.40890 | -4.28517 | 5059 ft | 261 kts | 138° |
| 2026-05-04 19:06 | 48.39505 | -4.26750 | 5785 ft | 268 kts | 139° |
| 2026-05-04 19:07 | 48.38060 | -4.24953 | 6679 ft | 269 kts | 139° |
| 2026-05-04 19:07 | 48.36662 | -4.23152 | 7485 ft | 272 kts | 139° |
| 2026-05-04 19:07 | 48.35197 | -4.21281 | 8171 ft | 281 kts | 139° |
| 2026-05-04 19:07 | 48.33725 | -4.19396 | 9043 ft | 280 kts | 139° |
| 2026-05-04 19:08 | 48.32267 | -4.17504 | 9985 ft | 276 kts | 139° |
| 2026-05-04 19:08 | 48.30802 | -4.15578 | 10449 ft | 291 kts | 138° |
| 2026-05-04 19:08 | 48.29226 | -4.13501 | 10839 ft | 308 kts | 139° |
| 2026-05-04 19:08 | 48.27383 | -4.11877 | 11601 ft | 312 kts | 160° |
| 2026-05-04 19:09 | 48.25196 | -4.11382 | 12122 ft | 328 kts | 181° |
| 2026-05-04 19:09 | 48.22910 | -4.11919 | 12559 ft | 345 kts | 189° |
| 2026-05-04 19:09 | 48.20492 | -4.12632 | 13054 ft | 359 kts | 188° |
| 2026-05-04 19:09 | 48.17996 | -4.13281 | 13558 ft | 373 kts | 187° |
| 2026-05-04 19:10 | 48.15379 | -4.13914 | 14084 ft | 387 kts | 187° |
| 2026-05-04 19:10 | 48.12717 | -4.14541 | 14808 ft | 395 kts | 186° |
| 2026-05-04 19:10 | 48.09983 | -4.15180 | 15736 ft | 398 kts | 186° |
| 2026-05-04 19:10 | 48.07271 | -4.15810 | 16653 ft | 401 kts | 186° |
| 2026-05-04 19:11 | 48.04504 | -4.16450 | 17494 ft | 405 kts | 186° |
| 2026-05-04 19:11 | 48.01717 | -4.17092 | 18357 ft | 408 kts | 186° |
| 2026-05-04 19:11 | 47.98925 | -4.17458 | 19178 ft | 410 kts | 178° |
| 2026-05-04 19:11 | 47.96059 | -4.17149 | 19994 ft | 412 kts | 169° |
| 2026-05-04 19:12 | 47.93294 | -4.16163 | 20799 ft | 414 kts | 161° |
| 2026-05-04 19:12 | 47.88073 | -4.12505 | 22323 ft | 422 kts | 152° |
| 2026-05-04 19:12 | 47.85461 | -4.10432 | 23146 ft | 424 kts | 152° |
| 2026-05-04 19:13 | 47.82877 | -4.08388 | 23913 ft | 427 kts | 152° |
| 2026-05-04 19:13 | 47.80235 | -4.06305 | 24514 ft | 433 kts | 152° |
| 2026-05-04 19:13 | 47.77555 | -4.04197 | 25038 ft | 440 kts | 152° |
| 2026-05-04 19:13 | 47.74871 | -4.02056 | 25616 ft | 445 kts | 149° |
| 2026-05-04 19:14 | 47.72310 | -3.99428 | 26216 ft | 449 kts | 141° |
| 2026-05-04 19:14 | 47.69986 | -3.96377 | 26802 ft | 453 kts | 138° |
| 2026-05-04 19:14 | 47.67635 | -3.93158 | 27409 ft | 458 kts | 137° |
| 2026-05-04 19:14 | 47.65306 | -3.89969 | 27990 ft | 462 kts | 137° |
| 2026-05-04 19:15 | 47.62938 | -3.86733 | 28575 ft | 467 kts | 137° |
| 2026-05-04 19:15 | 47.60572 | -3.83507 | 29196 ft | 470 kts | 137° |
| 2026-05-04 19:15 | 47.58126 | -3.80177 | 29950 ft | 470 kts | 138° |
| 2026-05-04 19:15 | 47.55730 | -3.76920 | 30842 ft | 467 kts | 138° |
| 2026-05-04 19:16 | 47.53336 | -3.73672 | 31606 ft | 464 kts | 138° |
| 2026-05-04 19:16 | 47.50976 | -3.70475 | 32163 ft | 464 kts | 138° |
| 2026-05-04 19:16 | 47.48611 | -3.67274 | 32583 ft | 466 kts | 138° |
| 2026-05-04 19:16 | 47.46226 | -3.64052 | 33002 ft | 467 kts | 138° |
| 2026-05-04 19:17 | 47.43818 | -3.60804 | 33429 ft | 467 kts | 138° |
| 2026-05-04 19:17 | 47.41435 | -3.57593 | 33853 ft | 467 kts | 138° |
| 2026-05-04 19:17 | 47.39032 | -3.54359 | 34249 ft | 468 kts | 138° |
| 2026-05-04 19:17 | 47.36616 | -3.51112 | 34665 ft | 469 kts | 138° |
| 2026-05-04 19:18 | 47.34201 | -3.47872 | 34925 ft | 473 kts | 138° |
| 2026-05-04 19:18 | 47.29266 | -3.41262 | 34967 ft | 481 kts | 138° |
| 2026-05-04 19:19 | 47.24332 | -3.34670 | 34975 ft | 480 kts | 139° |
| 2026-05-04 19:19 | 47.19397 | -3.28095 | 34973 ft | 478 kts | 139° |
| 2026-05-04 19:20 | 47.14475 | -3.21554 | 34970 ft | 478 kts | 139° |
| 2026-05-04 19:20 | 47.09557 | -3.15036 | 34970 ft | 479 kts | 139° |
| 2026-05-04 19:21 | 47.04606 | -3.08490 | 34967 ft | 480 kts | 139° |
| 2026-05-04 19:21 | 46.99653 | -3.01960 | 34970 ft | 479 kts | 139° |
| 2026-05-04 19:22 | 46.94697 | -2.95443 | 34972 ft | 479 kts | 139° |
| 2026-05-04 19:22 | 46.89727 | -2.88923 | 34966 ft | 478 kts | 139° |
| 2026-05-04 19:23 | 46.84786 | -2.82458 | 34978 ft | 478 kts | 139° |
| 2026-05-04 19:23 | 46.79858 | -2.76029 | 34975 ft | 478 kts | 139° |
| 2026-05-04 19:24 | 46.74898 | -2.69573 | 34969 ft | 478 kts | 139° |
| 2026-05-04 19:24 | 46.69939 | -2.63135 | 34969 ft | 479 kts | 139° |
| 2026-05-04 19:25 | 46.64950 | -2.56675 | 34975 ft | 478 kts | 139° |
| 2026-05-04 19:25 | 46.59978 | -2.50253 | 34973 ft | 480 kts | 140° |
| 2026-05-04 19:26 | 46.55038 | -2.43889 | 34969 ft | 479 kts | 140° |
| 2026-05-04 19:26 | 46.50024 | -2.37446 | 34977 ft | 479 kts | 140° |
| 2026-05-04 19:27 | 46.45045 | -2.31065 | 34973 ft | 479 kts | 140° |
| 2026-05-04 19:27 | 46.40051 | -2.24679 | 34973 ft | 479 kts | 140° |
| 2026-05-04 19:28 | 46.35079 | -2.18339 | 34971 ft | 478 kts | 140° |
| 2026-05-04 19:28 | 46.30103 | -2.12009 | 34973 ft | 478 kts | 140° |
| 2026-05-04 19:29 | 46.25084 | -2.05641 | 34972 ft | 478 kts | 141° |
| 2026-05-04 19:29 | 46.20113 | -1.99349 | 34968 ft | 478 kts | 141° |
| 2026-05-04 19:30 | 46.15105 | -1.93028 | 34969 ft | 478 kts | 141° |
| 2026-05-04 19:30 | 46.10087 | -1.86708 | 34969 ft | 478 kts | 141° |
| 2026-05-04 19:31 | 46.05101 | -1.80446 | 34961 ft | 478 kts | 141° |
| 2026-05-04 19:31 | 46.00104 | -1.74184 | 34960 ft | 477 kts | 141° |
| 2026-05-04 19:32 | 45.95096 | -1.67925 | 34960 ft | 478 kts | 141° |
| 2026-05-04 19:32 | 45.90129 | -1.61592 | 34962 ft | 478 kts | 140° |
| 2026-05-04 19:33 | 45.85228 | -1.55216 | 34973 ft | 478 kts | 140° |
| 2026-05-04 19:33 | 45.80313 | -1.48847 | 34957 ft | 477 kts | 140° |
| 2026-05-04 19:34 | 45.75376 | -1.42473 | 34961 ft | 477 kts | 140° |
| 2026-05-04 19:34 | 45.70441 | -1.36120 | 34956 ft | 476 kts | 140° |
| 2026-05-04 19:35 | 45.65438 | -1.30023 | 34957 ft | 466 kts | 148° |
| 2026-05-04 19:35 | 45.59913 | -1.25418 | 34951 ft | 460 kts | 153° |
| 2026-05-04 19:36 | 45.54322 | -1.21016 | 34964 ft | 460 kts | 153° |
| 2026-05-04 19:36 | 45.48754 | -1.16643 | 34958 ft | 459 kts | 153° |
| 2026-05-04 19:37 | 45.43119 | -1.12227 | 34956 ft | 461 kts | 153° |
| 2026-05-04 19:37 | 45.37525 | -1.07852 | 34967 ft | 459 kts | 153° |
| 2026-05-04 19:38 | 45.31901 | -1.03464 | 34966 ft | 460 kts | 154° |
| 2026-05-04 19:38 | 45.26278 | -0.99087 | 34959 ft | 459 kts | 153° |
| 2026-05-04 19:39 | 45.20678 | -0.94739 | 34968 ft | 461 kts | 153° |
| 2026-05-04 19:39 | 45.15063 | -0.90387 | 34958 ft | 459 kts | 153° |
| 2026-05-04 19:40 | 45.09437 | -0.86038 | 34966 ft | 461 kts | 154° |
| 2026-05-04 19:40 | 45.03821 | -0.81706 | 34955 ft | 459 kts | 154° |
| 2026-05-04 19:41 | 44.98225 | -0.77399 | 34952 ft | 460 kts | 154° |
| 2026-05-04 19:41 | 44.92628 | -0.73101 | 34948 ft | 459 kts | 154° |
| 2026-05-04 19:42 | 44.87029 | -0.68810 | 34949 ft | 452 kts | 154° |
| 2026-05-04 19:42 | 44.84247 | -0.66681 | 34554 ft | 450 kts | 154° |
| 2026-05-04 19:42 | 44.81517 | -0.64595 | 33806 ft | 452 kts | 154° |
| 2026-05-04 19:42 | 44.78772 | -0.62501 | 32791 ft | 453 kts | 154° |
| 2026-05-04 19:43 | 44.75992 | -0.60382 | 31890 ft | 456 kts | 153° |
| 2026-05-04 19:43 | 44.73231 | -0.58279 | 31264 ft | 454 kts | 153° |
| 2026-05-04 19:43 | 44.70475 | -0.56181 | 30910 ft | 445 kts | 153° |
| 2026-05-04 19:43 | 44.67764 | -0.54120 | 30564 ft | 437 kts | 153° |
| 2026-05-04 19:44 | 44.65130 | -0.52119 | 30148 ft | 429 kts | 153° |
| 2026-05-04 19:44 | 44.62513 | -0.50133 | 29700 ft | 423 kts | 153° |
| 2026-05-04 19:44 | 44.59943 | -0.48186 | 29250 ft | 417 kts | 153° |
| 2026-05-04 19:44 | 44.57391 | -0.46253 | 28780 ft | 412 kts | 154° |
| 2026-05-04 19:45 | 44.54887 | -0.44359 | 28329 ft | 406 kts | 154° |
| 2026-05-04 19:45 | 44.52443 | -0.42512 | 27882 ft | 400 kts | 154° |
| 2026-05-04 19:45 | 44.49997 | -0.40666 | 27428 ft | 397 kts | 153° |
| 2026-05-04 19:45 | 44.47512 | -0.38795 | 26967 ft | 410 kts | 153° |
| 2026-05-04 19:46 | 44.45018 | -0.36917 | 26445 ft | 410 kts | 153° |
| 2026-05-04 19:46 | 44.42516 | -0.35035 | 25894 ft | 406 kts | 153° |
| 2026-05-04 19:46 | 44.40049 | -0.33180 | 25446 ft | 403 kts | 154° |
| 2026-05-04 19:46 | 44.37569 | -0.31317 | 24962 ft | 401 kts | 154° |
| 2026-05-04 19:47 | 44.35140 | -0.29495 | 24456 ft | 399 kts | 154° |
| 2026-05-04 19:47 | 44.32681 | -0.27651 | 23940 ft | 395 kts | 154° |
| 2026-05-04 19:47 | 44.30291 | -0.25861 | 23598 ft | 387 kts | 154° |
| 2026-05-04 19:47 | 44.27955 | -0.24112 | 23523 ft | 372 kts | 154° |
| 2026-05-04 19:48 | 44.25750 | -0.22462 | 23083 ft | 359 kts | 154° |
| 2026-05-04 19:48 | 44.23576 | -0.20837 | 22337 ft | 356 kts | 154° |
| 2026-05-04 19:48 | 44.21379 | -0.19198 | 21673 ft | 358 kts | 154° |
| 2026-05-04 19:48 | 44.19186 | -0.17564 | 21076 ft | 359 kts | 154° |
| 2026-05-04 19:49 | 44.16991 | -0.15929 | 20551 ft | 358 kts | 154° |
| 2026-05-04 19:49 | 44.14811 | -0.14307 | 20047 ft | 357 kts | 154° |
| 2026-05-04 19:49 | 44.12608 | -0.12668 | 19538 ft | 355 kts | 154° |
| 2026-05-04 19:49 | 44.10444 | -0.11060 | 19017 ft | 355 kts | 154° |
| 2026-05-04 19:50 | 44.08248 | -0.09431 | 18493 ft | 354 kts | 155° |
| 2026-05-04 19:50 | 44.06092 | -0.07834 | 17989 ft | 354 kts | 155° |
| 2026-05-04 19:50 | 44.03887 | -0.06390 | 17430 ft | 349 kts | 164° |
| 2026-05-04 19:50 | 44.01568 | -0.05542 | 16705 ft | 344 kts | 170° |
| 2026-05-04 19:51 | 43.99239 | -0.04841 | 15954 ft | 342 kts | 170° |
| 2026-05-04 19:51 | 43.96915 | -0.04149 | 15213 ft | 340 kts | 170° |
| 2026-05-04 19:51 | 43.94645 | -0.03474 | 14493 ft | 337 kts | 170° |
| 2026-05-04 19:51 | 43.92357 | -0.02793 | 13773 ft | 335 kts | 170° |
| 2026-05-04 19:52 | 43.90096 | -0.02122 | 13077 ft | 332 kts | 170° |
| 2026-05-04 19:52 | 43.87849 | -0.01455 | 12381 ft | 329 kts | 170° |
| 2026-05-04 19:52 | 43.85628 | -0.00796 | 12077 ft | 328 kts | 170° |
| 2026-05-04 19:52 | 43.83401 | -0.00138 | 11994 ft | 328 kts | 170° |
| 2026-05-04 19:53 | 43.81147 | 0.00529 | 11993 ft | 329 kts | 170° |
| 2026-05-04 19:53 | 43.78961 | 0.01176 | 11931 ft | 319 kts | 170° |
| 2026-05-04 19:53 | 43.76826 | 0.01809 | 11686 ft | 304 kts | 170° |
| 2026-05-04 19:53 | 43.74810 | 0.02406 | 11265 ft | 297 kts | 170° |
| 2026-05-04 19:54 | 43.72776 | 0.03006 | 10723 ft | 294 kts | 170° |
| 2026-05-04 19:54 | 43.70790 | 0.03592 | 10134 ft | 293 kts | 170° |
| 2026-05-04 19:54 | 43.68823 | 0.04170 | 9538 ft | 293 kts | 170° |
| 2026-05-04 19:54 | 43.66817 | 0.04760 | 8938 ft | 293 kts | 170° |
| 2026-05-04 19:55 | 43.64844 | 0.05340 | 8347 ft | 292 kts | 169° |
| 2026-05-04 19:55 | 43.62872 | 0.05920 | 8028 ft | 281 kts | 169° |
| 2026-05-04 19:55 | 43.61021 | 0.06465 | 7997 ft | 271 kts | 169° |
| 2026-05-04 19:55 | 43.59174 | 0.07008 | 7993 ft | 265 kts | 169° |
| 2026-05-04 19:56 | 43.57422 | 0.07523 | 7993 ft | 254 kts | 169° |
| 2026-05-04 19:56 | 43.55697 | 0.08030 | 8048 ft | 252 kts | 169° |
| 2026-05-04 19:56 | 43.53999 | 0.08528 | 7989 ft | 250 kts | 169° |
| 2026-05-04 19:56 | 43.52298 | 0.09024 | 7980 ft | 249 kts | 169° |
| 2026-05-04 19:57 | 43.50613 | 0.09517 | 7727 ft | 246 kts | 169° |
| 2026-05-04 19:57 | 43.48925 | 0.10009 | 7193 ft | 248 kts | 169° |
| 2026-05-04 19:57 | 43.47253 | 0.10497 | 6669 ft | 248 kts | 169° |
| 2026-05-04 19:57 | 43.45576 | 0.10985 | 6186 ft | 247 kts | 169° |
| 2026-05-04 19:58 | 43.43891 | 0.11476 | 5694 ft | 246 kts | 169° |
| 2026-05-04 19:58 | 43.42219 | 0.11958 | 5210 ft | 244 kts | 170° |
| 2026-05-04 19:58 | 43.40551 | 0.11880 | 4714 ft | 240 kts | 201° |
| 2026-05-04 19:58 | 43.39170 | 0.10769 | 4497 ft | 224 kts | 217° |
| 2026-05-04 19:59 | 43.37909 | 0.09662 | 4395 ft | 207 kts | 209° |
| 2026-05-04 19:59 | 43.36642 | 0.08834 | 4151 ft | 199 kts | 203° |
| 2026-05-04 19:59 | 43.35342 | 0.08151 | 3814 ft | 198 kts | 200° |
| 2026-05-04 19:59 | 43.34060 | 0.07522 | 3519 ft | 197 kts | 200° |
| 2026-05-04 20:00 | 43.32766 | 0.06884 | 3224 ft | 195 kts | 200° |
| 2026-05-04 20:00 | 43.31501 | 0.06252 | 3013 ft | 189 kts | 201° |
| 2026-05-04 20:00 | 43.30246 | 0.05617 | 2993 ft | 193 kts | 201° |
| 2026-05-04 20:00 | 43.28983 | 0.04976 | 2989 ft | 194 kts | 201° |
| 2026-05-04 20:01 | 43.27714 | 0.04334 | 2999 ft | 193 kts | 201° |
| 2026-05-04 20:01 | 43.26443 | 0.03691 | 2779 ft | 190 kts | 201° |
| 2026-05-04 20:01 | 43.25251 | 0.03092 | 2525 ft | 178 kts | 201° |
| 2026-05-04 20:01 | 43.24106 | 0.02514 | 2282 ft | 171 kts | 201° |
| 2026-05-04 20:02 | 43.23023 | 0.01968 | 2050 ft | 160 kts | 201° |
| 2026-05-04 20:02 | 43.22006 | 0.01455 | 1832 ft | 153 kts | 202° |
| 2026-05-04 20:02 | 43.21015 | 0.00954 | 1625 ft | 152 kts | 202° |
| 2026-05-04 20:02 | 43.20016 | 0.00464 | 1377 ft | 152 kts | 202° |
| 2026-05-04 20:03 | 43.19040 | -0.00032 | 1210 ft | 151 kts | 201° |
| 2026-05-04 20:03 | 43.18191 | -0.00471 | 1215 ft | 80 kts | 202° |
| 2026-05-04 20:03 | 43.18054 | -0.00525 | 1218 ft | 4 kts | 113° |
| 2026-05-04 20:03 | 43.18043 | -0.00472 | 1218 ft | 5 kts | 109° |
| 2026-05-04 20:04 | 43.18030 | -0.00417 | 1218 ft | 5 kts | 101° |
| 2026-05-04 20:04 | 43.18029 | -0.00365 | 1217 ft | 3 kts | 85° |
| 2026-05-04 20:04 | 43.18029 | -0.00357 | 1217 ft | 0 kts | 84° |
| 2026-05-04 20:05 | 43.18030 | -0.00342 | 1217 ft | 5 kts | 82° |
| 2026-05-04 20:05 | 43.18051 | -0.00251 | 1215 ft | 16 kts | 64° |
| 2026-05-04 20:05 | 43.18121 | -0.00117 | 1212 ft | 17 kts | 47° |
| 2026-05-04 20:05 | 43.18226 | -0.00031 | 1209 ft | 17 kts | 29° |
| 2026-05-04 20:06 | 43.18337 | 0.00056 | 1206 ft | 18 kts | 30° |
| 2026-05-04 20:06 | 43.18413 | 0.00156 | 1203 ft | 11 kts | 90° |
| 2026-05-04 20:06 | 43.18431 | 0.00257 | 1202 ft | 11 kts | 45° |
| 2026-05-04 20:06 | 43.18469 | 0.00298 | 1201 ft | 0 kts | 37° |
| 2026-05-04 20:07 | 43.18474 | 0.00304 | 1201 ft | 0 kts | 38° |